CheckWX is a tool to help pilots better visualize weather data.  It is not intended as a substitute for an official pre-flight weather briefing.

10:07:39 UTC

YPWR TAF
Woomera Airfield Airport
Woomera, Australia
TAF YPWR 260458Z 2606/2624 02012KT CAVOK FM260800 05010KT CAVOK

Jun-26@
06:00 UTC

Jun-26 @ 06:00 UTC

Jun-26@
08:00 UTC

Jun-26 @ 08:00 UTC

TAF YPWR 260458Z 2606/2624 02012KT CAVOK

Expired

Wind
  • 020° at 12 KTS
Conditions
No significant weather
Cloud Levels
  • No significant clouds

Jun-26@
08:00 UTC

Jun-26 @ 08:00 UTC

Jun-27@
00:00 UTC

Jun-27 @ 00:00 UTC

FM260800 05010KT CAVOK

From

From Standard forecast or significant change

Wind
  • 050° at 10 KTS
Conditions
No significant weather
Cloud Levels
  • No significant clouds